Time;durP1;ratioP1;P1;durP2;ratioP2;P2;SDS_P1;SDS_P2;PMS_P1;PMS_P2;Temp;Humidity;BMP_temperature;BMP_pressure;BME280_temperature;BME280_humidity;BME280_pressure;Samples;Min_cycle;Max_cycle;Signal;HPM_P1;HPM_P2
2022/11/10 00:01:47;;;;;;;36.72;6.13;;;;;;;13.77;100.00;100323.03;5070247;28;20131;-65
2022/11/10 00:04:13;;;;;;;26.48;4.78;;;;;;;13.78;100.00;100324.69;5061249;28;20114;-65
2022/11/10 00:06:39;;;;;;;30.17;5.40;;;;;;;13.79;100.00;100327.16;5074036;28;20071;-64
2022/11/10 00:09:05;;;;;;;33.70;6.13;;;;;;;13.79;100.00;100327.16;5101242;28;20027;-64
2022/11/10 00:11:31;;;;;;;35.90;6.05;;;;;;;13.78;100.00;100330.09;5101830;28;20032;-64
2022/11/10 00:19:28;;;;;;;34.70;5.13;;;;;;;13.68;100.00;100336.06;5102773;28;20271;-65
2022/11/10 00:21:53;;;;;;;33.85;5.68;;;;;;;13.63;100.00;100339.44;5089322;28;20461;-64
2022/11/10 00:24:19;;;;;;;23.75;4.80;;;;;;;13.60;100.00;100341.78;5096212;28;20051;-65
2022/11/10 00:26:45;;;;;;;32.67;5.68;;;;;;;13.58;100.00;100341.22;5107946;28;20469;-64
2022/11/10 00:29:10;;;;;;;30.35;5.32;;;;;;;13.55;100.00;100345.19;5101435;28;20043;-64
2022/11/10 00:31:39;;;;;;;33.03;5.22;;;;;;;13.51;100.00;100348.56;5100603;28;20490;-65
2022/11/10 00:34:06;;;;;;;26.15;5.00;;;;;;;13.48;100.00;100354.47;5108989;28;20031;-65
2022/11/10 00:36:33;;;;;;;26.42;4.82;;;;;;;13.45;100.00;100344.94;5096012;28;20027;-64
2022/11/10 00:38:58;;;;;;;35.83;5.10;;;;;;;13.44;100.00;100347.84;5105948;28;20035;-64
2022/11/10 00:41:23;;;;;;;31.13;5.13;;;;;;;13.26;100.00;100335.22;5103049;28;20508;-65
2022/11/10 00:43:49;;;;;;;37.97;5.78;;;;;;;13.22;100.00;100331.28;5080815;28;20090;-64
2022/11/10 00:46:15;;;;;;;29.08;4.80;;;;;;;13.15;100.00;100323.28;5109124;28;20032;-64
2022/11/10 00:48:40;;;;;;;31.20;5.03;;;;;;;13.32;100.00;100364.03;5078633;28;20020;-65
2022/11/10 00:51:06;;;;;;;32.08;5.22;;;;;;;13.32;100.00;100367.53;5069620;28;20036;-64
2022/11/10 00:53:32;;;;;;;26.70;4.72;;;;;;;13.30;100.00;100376.94;5103911;28;20175;-64
2022/11/10 00:55:57;;;;;;;28.27;4.60;;;;;;;13.23;100.00;100373.47;5097774;28;20032;-64
2022/11/10 00:58:23;;;;;;;24.33;3.95;;;;;;;13.15;100.00;100380.81;5108540;28;20028;-64
2022/11/10 01:00:48;;;;;;;25.88;3.97;;;;;;;13.13;100.00;100385.63;5096996;28;20048;-65
2022/11/10 01:03:15;;;;;;;22.83;3.70;;;;;;;13.08;100.00;100390.88;5102074;28;20126;-64
2022/11/10 01:05:42;;;;;;;18.90;3.00;;;;;;;12.88;100.00;100372.22;5086657;28;20114;-64
2022/11/10 01:08:08;;;;;;;19.67;2.90;;;;;;;13.01;100.00;100395.50;5095812;28;20040;-64
2022/11/10 01:10:33;;;;;;;22.20;2.40;;;;;;;13.00;100.00;100393.06;5090543;28;20043;-64
2022/11/10 01:13:00;;;;;;;14.75;2.47;;;;;;;12.98;100.00;100397.84;5080605;28;20553;-65
2022/11/10 01:15:25;;;;;;;19.10;2.45;;;;;;;12.95;100.00;100396.44;5083447;28;20035;-66
2022/11/10 01:17:52;;;;;;;18.45;2.97;;;;;;;12.91;100.00;100393.38;5106257;28;20031;-65
2022/11/10 01:20:18;;;;;;;14.57;2.33;;;;;;;12.89;100.00;100405.44;5095060;28;20035;-64
2022/11/10 01:22:43;;;;;;;15.02;2.92;;;;;;;12.92;100.00;100410.38;5072261;28;20063;-64
2022/11/10 01:25:09;;;;;;;20.77;3.25;;;;;;;12.67;100.00;100378.84;5081842;28;20039;-64
2022/11/10 01:27:34;;;;;;;21.08;3.13;;;;;;;12.88;100.00;100411.88;5100112;28;20104;-64
2022/11/10 01:30:00;;;;;;;22.58;3.38;;;;;;;12.86;100.00;100419.38;5107072;28;20490;-64
2022/11/10 01:32:25;;;;;;;20.65;3.28;;;;;;;12.87;100.00;100429.13;5077042;28;20048;-64
2022/11/10 01:34:50;;;;;;;16.05;2.40;;;;;;;12.78;100.00;100419.66;5106395;28;20517;-63
2022/11/10 01:37:16;;;;;;;22.30;3.28;;;;;;;12.79;100.00;100427.53;5082781;28;20630;-64
2022/11/10 01:39:41;;;;;;;23.23;3.33;;;;;;;12.78;100.00;100433.16;5081022;28;20071;-64
2022/11/10 01:42:07;;;;;;;16.95;3.00;;;;;;;12.76;100.00;100428.00;5107764;28;20429;-64
2022/11/10 01:44:35;;;;;;;23.08;3.05;;;;;;;12.76;100.00;100428.00;5094826;28;20041;-64
2022/11/10 01:47:01;;;;;;;22.73;3.10;;;;;;;12.77;100.00;100431.50;5104773;28;20036;-65
2022/11/10 01:49:31;;;;;;;22.33;2.90;;;;;;;12.52;100.00;100394.59;5102185;28;20050;-64
2022/11/10 01:52:08;;;;;;;17.75;3.17;;;;;;;12.74;100.00;100434.66;5096753;28;20032;-64
2022/11/10 01:54:39;;;;;;;26.60;3.83;;;;;;;12.58;100.00;100419.84;5089692;28;20055;-65
2022/11/10 01:57:08;;;;;;;23.75;3.47;;;;;;;12.69;100.00;100440.72;5080803;28;20030;-64
2022/11/10 01:59:39;;;;;;;23.75;3.55;;;;;;;12.68;100.00;100445.31;5099790;28;20097;-64
2022/11/10 02:02:14;;;;;;;24.02;3.67;;;;;;;12.65;100.00;100450.31;5106884;28;20135;-64
2022/11/10 02:04:41;;;;;;;25.90;3.90;;;;;;;12.59;100.00;100435.84;5079288;28;20028;-64
2022/11/10 02:07:08;;;;;;;25.55;4.13;;;;;;;12.65;100.00;100448.44;5103468;28;20024;-64
2022/11/10 02:09:34;;;;;;;21.48;3.60;;;;;;;12.62;100.00;100445.38;5103091;28;20502;-64
2022/11/10 02:11:59;;;;;;;21.33;3.85;;;;;;;12.67;100.00;100467.94;5084589;28;20089;-64
2022/11/10 02:14:25;;;;;;;27.70;4.28;;;;;;;12.72;100.00;100475.38;5096585;28;20074;-64
2022/11/10 02:16:51;;;;;;;21.17;3.80;;;;;;;12.75;100.00;100469.53;5103483;28;20015;-65
2022/11/10 02:19:23;;;;;;;20.40;4.05;;;;;;;12.80;100.00;100467.00;5073816;28;20110;-64
2022/11/10 02:21:48;;;;;;;26.02;4.65;;;;;;;12.82;100.00;100481.09;5093247;28;20066;-64
2022/11/10 02:24:14;;;;;;;26.13;4.93;;;;;;;12.81;100.00;100476.72;5100986;28;20067;-64
2022/11/10 02:26:45;;;;;;;28.23;4.88;;;;;;;12.83;100.00;100476.53;5113986;28;20053;-65
2022/11/10 02:29:11;;;;;;;24.60;4.88;;;;;;;12.77;100.00;100472.00;5106017;28;20027;-64
2022/11/10 02:31:36;;;;;;;26.45;5.22;;;;;;;12.78;100.00;100487.16;5104544;28;20088;-64
2022/11/10 02:34:07;;;;;;;33.53;5.32;;;;;;;12.77;100.00;100494.44;5095187;28;20489;-64
2022/11/10 02:36:33;;;;;;;27.15;4.78;;;;;;;12.75;100.00;100487.59;5067007;28;20462;-65
2022/11/10 02:38:58;;;;;;;27.85;4.82;;;;;;;12.71;100.00;100492.59;5093152;28;20031;-64
2022/11/10 02:41:24;;;;;;;27.55;4.22;;;;;;;12.74;100.00;100496.75;5107988;28;20535;-64
2022/11/10 02:43:50;;;;;;;27.40;4.72;;;;;;;12.72;100.00;100499.69;5104134;28;20501;-64
2022/11/10 02:46:16;;;;;;;30.67;4.82;;;;;;;12.70;100.00;100502.59;5114184;28;20085;-64
2022/11/10 02:48:41;;;;;;;29.33;4.63;;;;;;;12.72;100.00;100506.97;5067150;28;20124;-64
2022/11/10 02:51:07;;;;;;;36.72;4.40;;;;;;;12.56;100.00;100497.53;5091977;28;20123;-64
2022/11/10 02:53:32;;;;;;;30.52;3.65;;;;;;;12.63;100.00;100515.31;5073757;28;20081;-65
2022/11/10 02:55:58;;;;;;;31.92;4.63;;;;;;;12.63;100.00;100514.50;5084782;28;20032;-64
2022/11/10 02:58:23;;;;;;;27.88;4.35;;;;;;;12.60;100.00;100521.16;5095780;28;20038;-64
2022/11/10 03:00:48;;;;;;;32.03;3.95;;;;;;;12.57;100.00;100524.28;5102537;28;20076;-64
2022/11/10 03:03:14;;;;;;;30.60;4.47;;;;;;;12.55;100.00;100528.25;5091190;28;20047;-65
2022/11/10 03:05:39;;;;;;;30.52;4.25;;;;;;;12.56;100.00;100535.31;5109712;28;20034;-64
2022/11/10 03:08:05;;;;;;;31.10;4.57;;;;;;;12.51;100.00;100530.56;5083571;28;20038;-65
2022/11/10 03:10:30;;;;;;;29.88;4.00;;;;;;;12.51;100.00;100535.13;5114064;28;20435;-65
2022/11/10 03:12:58;;;;;;;29.20;4.50;;;;;;;12.49;100.00;100529.16;5103280;28;20042;-69
2022/11/10 03:15:24;;;;;;;29.45;4.88;;;;;;;12.27;100.00;100504.38;5089621;28;20032;-65
2022/11/10 03:17:50;;;;;;;30.90;4.25;;;;;;;12.44;100.00;100533.28;5110940;28;20084;-64
2022/11/10 03:20:16;;;;;;;29.10;3.90;;;;;;;12.45;100.00;100526.06;5100759;28;20024;-64
2022/11/10 03:22:41;;;;;;;32.30;4.68;;;;;;;12.41;100.00;100538.31;5092028;28;20053;-65
2022/11/10 03:25:08;;;;;;;27.80;4.57;;;;;;;12.40;100.00;100536.66;5101702;28;20088;-64
2022/11/10 03:27:33;;;;;;;34.03;4.05;;;;;;;12.40;100.00;100540.19;5084674;28;20115;-67
2022/11/10 03:29:58;;;;;;;27.25;4.07;;;;;;;12.38;100.00;100552.22;5108881;28;20123;-64
2022/11/10 03:32:24;;;;;;;33.30;4.57;;;;;;;12.38;100.00;100546.84;5079066;28;20043;-64
2022/11/10 03:34:49;;;;;;;28.17;4.63;;;;;;;12.39;100.00;100546.63;5091041;28;20088;-64
2022/11/10 03:37:17;;;;;;;35.85;4.80;;;;;;;12.37;100.00;100553.28;5102591;28;20072;-64
2022/11/10 03:39:43;;;;;;;29.00;3.78;;;;;;;12.37;100.00;100554.09;5101504;28;20123;-64
2022/11/10 03:42:08;;;;;;;28.02;4.30;;;;;;;12.39;100.00;100562.81;5110102;28;20204;-64
2022/11/10 03:44:33;;;;;;;40.38;3.97;;;;;;;12.40;100.00;100569.03;5078664;28;20019;-64
2022/11/10 03:47:01;;;;;;;38.38;4.05;;;;;;;12.37;100.00;100574.88;5107735;28;20402;-64
2022/11/10 03:49:27;;;;;;;32.70;4.18;;;;;;;12.40;100.00;100577.13;5103958;28;20179;-65
2022/11/10 03:51:52;;;;;;;34.80;4.55;;;;;;;12.35;100.00;100567.00;5082370;28;20067;-64
2022/11/10 03:54:18;;;;;;;30.52;4.60;;;;;;;12.36;100.00;100586.72;5075065;28;20036;-64
2022/11/10 03:56:43;;;;;;;32.42;4.43;;;;;;;12.34;100.00;100581.50;5097648;28;20443;-64
2022/11/10 03:59:08;;;;;;;28.15;4.07;;;;;;;12.37;100.00;100585.66;5106078;28;20066;-64
2022/11/10 04:01:34;;;;;;;29.50;4.35;;;;;;;12.34;100.00;100586.09;5086242;28;20062;-64
2022/11/10 04:04:02;;;;;;;25.70;4.32;;;;;;;12.34;100.00;100589.63;5098762;28;20068;-64
2022/11/10 04:09:11;;;;;;;35.45;4.50;;;;;;;12.32;100.00;100588.19;5086378;28;20080;-65
2022/11/10 04:17:04;;;;;;;25.95;3.90;;;;;;;12.10;100.00;100571.50;5100642;28;20513;-65
2022/11/10 04:19:30;;;;;;;33.25;3.85;;;;;;;12.21;100.00;100598.59;5067628;28;20036;-64
2022/11/10 04:21:56;;;;;;;34.78;4.70;;;;;;;12.08;100.00;100569.00;5107319;28;20373;-65
2022/11/10 04:24:21;;;;;;;34.47;4.22;;;;;;;12.25;100.00;100600.88;5096436;28;20028;-64
2022/11/10 04:26:47;;;;;;;36.97;4.40;;;;;;;12.20;100.00;100594.25;5090417;28;20031;-65
2022/11/10 04:29:16;;;;;;;27.38;4.20;;;;;;;12.16;100.00;100595.72;5101245;28;20024;-65
2022/11/10 04:31:42;;;;;;;36.28;4.85;;;;;;;12.21;100.00;100605.88;5102308;28;20028;-64
2022/11/10 04:34:12;;;;;;;40.10;4.32;;;;;;;12.19;100.00;100614.19;5109478;28;20031;-65
2022/11/10 04:36:40;;;;;;;37.83;4.28;;;;;;;12.14;100.00;100619.38;5095933;28;20031;-65
2022/11/10 04:39:08;;;;;;;33.75;4.68;;;;;;;12.08;100.00;100622.94;5105999;28;20024;-64
2022/11/10 04:41:34;;;;;;;29.92;4.30;;;;;;;12.14;100.00;100629.34;5103819;28;20530;-64
2022/11/10 04:44:00;;;;;;;37.22;4.80;;;;;;;12.15;100.00;100633.69;5079976;28;20063;-64
2022/11/10 04:46:37;;;;;;;26.30;3.63;;;;;;;12.07;100.00;100621.28;5109246;28;20035;-65
2022/11/10 04:49:04;;;;;;;36.30;5.63;;;;;;;12.12;100.00;100637.66;5099178;28;20023;-64
2022/11/10 04:51:37;;;;;;;37.22;4.35;;;;;;;12.07;100.00;100648.25;5102407;28;20089;-64
2022/11/10 04:54:04;;;;;;;28.70;3.78;;;;;;;11.84;100.00;100632.56;5107673;28;20036;-64
2022/11/10 04:56:30;;;;;;;30.75;4.05;;;;;;;12.03;100.00;100659.69;5077542;28;20114;-64
2022/11/10 04:58:55;;;;;;;32.80;4.10;;;;;;;12.01;100.00;100654.50;5106909;28;20145;-64
2022/11/10 05:01:24;;;;;;;36.55;4.35;;;;;;;11.82;100.00;100629.22;5101424;28;20051;-65
2022/11/10 05:03:50;;;;;;;32.72;4.35;;;;;;;11.87;100.00;100656.41;5099360;28;20510;-64
2022/11/10 05:06:17;;;;;;;34.47;4.00;;;;;;;11.81;100.00;100651.00;5109623;28;20106;-64
2022/11/10 05:08:43;;;;;;;32.50;3.90;;;;;;;11.74;100.00;100653.72;5061403;28;20023;-64
2022/11/10 05:11:09;;;;;;;32.50;4.10;;;;;;;11.85;100.00;100676.50;5070502;28;20102;-65
2022/11/10 05:13:34;;;;;;;47.35;4.35;;;;;;;11.81;100.00;100686.03;5083275;28;20411;-64
2022/11/10 05:16:00;;;;;;;37.55;4.55;;;;;;;11.80;100.00;100693.31;5106817;28;20019;-63
2022/11/10 05:18:28;;;;;;;38.15;3.85;;;;;;;11.73;100.00;100692.50;5077295;28;20028;-64
2022/11/10 05:20:54;;;;;;;29.50;4.32;;;;;;;11.79;100.00;100699.75;5106837;28;20652;-65
2022/11/10 05:23:38;;;;;;;27.75;3.65;;;;;;;11.80;100.00;100695.19;5101212;28;20032;-64
2022/11/10 05:26:12;;;;;;;35.95;4.47;;;;;;;11.79;100.00;100707.84;5097263;28;20088;-65
2022/11/10 05:28:39;;;;;;;33.25;5.05;;;;;;;11.76;100.00;100711.78;5108501;28;20081;-65
2022/11/10 05:31:06;;;;;;;40.05;4.45;;;;;;;11.73;100.00;100724.84;5098716;28;20482;-65
2022/11/10 05:33:32;;;;;;;35.45;4.30;;;;;;;11.72;100.00;100718.63;5101359;28;20054;-64
2022/11/10 05:35:57;;;;;;;34.30;4.25;;;;;;;11.74;100.00;100731.88;5106055;28;20375;-64
2022/11/10 05:38:23;;;;;;;38.88;4.63;;;;;;;11.52;100.00;100705.16;5076785;28;20024;-64
2022/11/10 05:40:48;;;;;;;39.22;4.05;;;;;;;11.67;100.00;100747.22;5055617;28;20097;-65
2022/11/10 05:43:14;;;;;;;35.10;4.13;;;;;;;11.65;100.00;100747.41;5099881;28;20064;-64
2022/11/10 05:45:39;;;;;;;34.53;4.35;;;;;;;11.58;100.00;100746.59;5081278;28;20398;-64
2022/11/10 05:48:05;;;;;;;37.85;4.80;;;;;;;11.54;100.00;100758.84;5088514;28;20451;-64
2022/11/10 05:50:30;;;;;;;33.72;4.40;;;;;;;11.53;100.00;100765.25;5060277;28;20546;-65
2022/11/10 05:52:56;;;;;;;34.05;4.47;;;;;;;11.58;100.00;100759.25;5078451;28;20023;-65
2022/11/10 05:55:26;;;;;;;44.72;6.15;;;;;;;11.58;100.00;100764.63;5101312;28;20115;-64
2022/11/10 05:57:52;;;;;;;28.08;3.90;;;;;;;11.58;100.00;100760.06;5103663;28;20025;-64
2022/11/10 06:00:20;;;;;;;33.95;4.13;;;;;;;11.61;100.00;100764.22;5094694;28;20060;-64
2022/11/10 06:03:02;;;;;;;32.47;5.13;;;;;;;11.57;100.00;100771.91;5089681;28;20024;-63
2022/11/10 06:05:31;;;;;;;39.58;5.00;;;;;;;11.60;100.00;100776.88;5084524;28;20032;-64
2022/11/10 06:07:56;;;;;;;29.08;3.78;;;;;;;11.63;100.00;100789.13;5097531;28;20073;-63
2022/11/10 06:10:22;;;;;;;29.80;3.65;;;;;;;11.64;100.00;100793.47;5089667;28;20452;-63
2022/11/10 06:12:51;;;;;;;32.95;4.20;;;;;;;11.63;100.00;100795.31;5095846;28;20036;-63
2022/11/10 06:15:16;;;;;;;30.55;4.32;;;;;;;11.69;100.00;100816.06;5068362;28;20035;-64
2022/11/10 06:17:43;;;;;;;36.72;4.47;;;;;;;11.73;100.00;100805.72;5103576;28;20106;-64
2022/11/10 06:20:09;;;;;;;36.80;4.00;;;;;;;11.73;100.00;100798.44;5096043;28;20040;-63
2022/11/10 06:22:35;;;;;;;28.42;4.13;;;;;;;11.82;100.00;100809.00;5107902;28;20027;-63
2022/11/10 06:25:01;;;;;;;32.97;4.00;;;;;;;11.79;100.00;100809.41;5096885;28;20028;-63
2022/11/10 06:27:26;;;;;;;32.17;3.95;;;;;;;11.83;100.00;100813.38;5101931;28;20055;-63
2022/11/10 06:29:51;;;;;;;38.30;4.55;;;;;;;11.80;100.00;100813.78;5086679;28;20445;-64
2022/11/10 06:32:17;;;;;;;35.25;4.63;;;;;;;11.83;100.00;100822.28;5076611;28;20052;-67
2022/11/10 06:34:42;;;;;;;43.05;4.15;;;;;;;11.84;100.00;100818.59;5106239;28;20059;-63
2022/11/10 06:37:08;;;;;;;35.60;4.18;;;;;;;11.71;100.00;100802.38;5098108;28;20035;-63
2022/11/10 06:39:33;;;;;;;40.65;4.18;;;;;;;11.87;100.00;100828.13;5082281;28;20032;-63
2022/11/10 06:41:59;;;;;;;36.58;4.32;;;;;;;11.87;100.00;100828.97;5105037;28;20516;-63
2022/11/10 06:44:26;;;;;;;35.03;4.03;;;;;;;11.92;100.00;100831.03;5091937;28;20035;-64
2022/11/10 06:46:52;;;;;;;33.35;4.50;;;;;;;11.90;100.00;100841.19;5095896;28;20084;-64
2022/11/10 06:49:18;;;;;;;32.70;4.10;;;;;;;11.90;100.00;100854.69;5102807;28;20114;-63
2022/11/10 06:51:43;;;;;;;30.63;3.83;;;;;;;11.91;100.00;100859.84;5085011;28;20115;-64
2022/11/10 06:54:08;;;;;;;33.88;4.68;;;;;;;11.92;100.00;100863.38;5060716;28;20039;-64
2022/11/10 06:56:34;;;;;;;32.38;3.70;;;;;;;11.92;100.00;100864.25;5107589;28;20031;-64
2022/11/10 06:59:00;;;;;;;34.38;4.13;;;;;;;11.94;100.00;100866.72;5100370;28;20027;-64
2022/11/10 07:01:25;;;;;;;36.40;4.50;;;;;;;11.94;100.00;100869.41;5105107;28;20059;-64
2022/11/10 07:03:53;;;;;;;32.03;3.97;;;;;;;11.94;100.00;100870.22;5107530;28;20504;-64
2022/11/10 07:06:20;;;;;;;37.88;4.25;;;;;;;11.93;100.00;100870.44;5097776;28;20032;-64
2022/11/10 07:08:45;;;;;;;35.42;4.10;;;;;;;11.93;100.00;100876.66;5092701;28;20045;-64
2022/11/10 07:11:11;;;;;;;26.90;3.20;;;;;;;11.93;100.00;100878.53;5083773;28;20036;-64
2022/11/10 07:13:36;;;;;;;38.33;4.22;;;;;;;11.94;100.00;100886.41;5103518;28;20027;-64
2022/11/10 07:16:06;;;;;;;35.00;4.20;;;;;;;11.93;100.00;100871.28;5108915;28;20024;-64
2022/11/10 07:18:35;;;;;;;30.67;3.65;;;;;;;11.85;100.00;100865.25;5097797;28;20043;-64
2022/11/10 07:21:03;;;;;;;40.03;4.90;;;;;;;11.89;100.00;100886.22;5108416;28;20073;-64
2022/11/10 07:23:33;;;;;;;32.17;4.10;;;;;;;11.88;100.00;100883.72;5086051;28;20031;-64
2022/11/10 07:25:59;;;;;;;27.92;3.75;;;;;;;11.88;100.00;100894.50;5100318;28;20042;-64
2022/11/10 07:28:25;;;;;;;39.70;4.25;;;;;;;11.87;100.00;100901.75;5110637;28;20436;-64
2022/11/10 07:30:50;;;;;;;44.15;5.45;;;;;;;11.80;100.00;100894.69;5080663;28;20023;-64
2022/11/10 07:33:16;;;;;;;38.55;5.05;;;;;;;11.73;100.00;100887.41;5106142;28;20031;-64
2022/11/10 07:35:41;;;;;;;35.83;4.20;;;;;;;11.85;100.00;100906.50;5070731;28;20046;-64
2022/11/10 07:38:10;;;;;;;43.70;4.72;;;;;;;11.85;100.00;100895.72;5098978;28;20093;-64
2022/11/10 07:40:36;;;;;;;41.70;4.45;;;;;;;11.86;100.00;100905.50;5092362;28;20024;-64
2022/11/10 07:43:02;;;;;;;35.28;4.32;;;;;;;11.85;100.00;100903.00;5100023;28;20034;-64
2022/11/10 07:45:30;;;;;;;40.08;5.03;;;;;;;11.86;100.00;100910.06;5104238;28;20126;-64
2022/11/10 07:48:00;;;;;;;30.88;4.13;;;;;;;11.77;100.00;100899.44;5107302;28;20040;-63
2022/11/10 07:50:25;;;;;;;40.13;4.45;;;;;;;11.87;100.00;100911.72;5097005;28;20036;-64
2022/11/10 07:52:51;;;;;;;35.95;4.60;;;;;;;11.87;100.00;100920.63;5092002;28;20035;-64
2022/11/10 07:55:16;;;;;;;36.60;4.75;;;;;;;11.90;100.00;100919.41;5075334;28;20368;-64
2022/11/10 07:57:42;;;;;;;45.97;4.45;;;;;;;11.92;100.00;100917.31;5105504;28;20027;-64
2022/11/10 08:00:08;;;;;;;37.28;4.43;;;;;;;11.99;100.00;100923.56;5098289;28;20059;-64
2022/11/10 08:02:34;;;;;;;38.55;4.40;;;;;;;12.04;100.00;100931.84;5112459;28;20055;-64
2022/11/10 08:05:00;;;;;;;35.08;3.95;;;;;;;12.06;100.00;100924.41;5107794;28;20050;-65
2022/11/10 08:07:25;;;;;;;33.55;4.10;;;;;;;12.08;100.00;100937.66;5084544;28;20502;-64
2022/11/10 08:09:50;;;;;;;38.83;4.65;;;;;;;12.17;100.00;100948.06;5100377;28;20068;-64
2022/11/10 08:12:16;;;;;;;37.50;4.20;;;;;;;12.26;100.00;100939.78;5109933;28;20032;-64
2022/11/10 08:14:41;;;;;;;34.22;4.03;;;;;;;12.44;100.00;100951.59;5096714;28;20028;-64
2022/11/10 08:17:07;;;;;;;38.00;4.32;;;;;;;12.59;100.00;100946.00;5106674;28;20040;-64
2022/11/10 08:19:32;;;;;;;36.28;4.28;;;;;;;12.55;100.00;100923.16;5103453;28;20027;-64
2022/11/10 08:21:57;;;;;;;34.60;3.65;;;;;;;12.81;100.00;100956.53;5081508;28;20490;-64
2022/11/10 08:24:23;;;;;;;29.63;3.90;;;;;;;12.82;100.00;100950.94;5109959;28;20393;-64
2022/11/10 08:26:48;;;;;;;36.25;4.32;;;;;;;12.82;100.00;100948.25;5097055;28;20066;-64
2022/11/10 08:29:14;;;;;;;34.05;4.40;;;;;;;12.90;100.00;100947.19;5105703;28;20050;-64
2022/11/10 08:31:39;;;;;;;38.70;4.35;;;;;;;12.96;100.00;100949.06;5104169;28;20032;-65
2022/11/10 08:34:04;;;;;;;26.77;4.47;;;;;;;12.86;100.00;100933.28;5098364;28;20085;-65
2022/11/10 08:36:30;;;;;;;39.63;5.18;;;;;;;13.00;100.00;100955.69;5074574;28;20035;-64
2022/11/10 08:38:55;;;;;;;40.78;4.15;;;;;;;13.05;100.00;100971.28;5079783;28;20520;-64
2022/11/10 08:41:20;;;;;;;33.72;4.68;;;;;;;13.09;100.00;100980.63;5104569;28;20122;-65
2022/11/10 08:43:46;;;;;;;27.00;3.47;;;;;;;13.05;100.00;100982.09;5086976;28;20379;-64
2022/11/10 08:46:12;;;;;;;37.55;5.13;;;;;;;13.07;100.00;100974.56;5095212;28;20093;-64
2022/11/10 08:48:37;;;;;;;29.42;3.95;;;;;;;12.97;100.00;100957.97;5109328;28;20042;-64
2022/11/10 08:51:03;;;;;;;28.67;4.10;;;;;;;13.15;100.00;100993.28;5080488;28;20032;-64
2022/11/10 08:53:28;;;;;;;34.55;4.07;;;;;;;13.14;100.00;100995.16;5103168;28;20040;-64
2022/11/10 08:55:57;;;;;;;28.42;4.30;;;;;;;13.32;100.00;100997.22;5105875;28;20074;-64
2022/11/10 08:58:23;;;;;;;34.45;4.30;;;;;;;13.29;100.00;100999.50;5077568;28;20554;-64
2022/11/10 09:00:50;;;;;;;35.83;4.22;;;;;;;13.33;100.00;101001.56;5108578;28;20119;-64
2022/11/10 09:03:17;;;;;;;29.63;3.97;;;;;;;13.36;100.00;100998.44;5100244;28;20039;-64
2022/11/10 09:05:43;;;;;;;29.65;4.95;;;;;;;13.42;100.00;101004.06;5082614;28;20494;-64
2022/11/10 09:08:09;;;;;;;30.88;3.90;;;;;;;13.42;100.00;100999.47;5089461;28;20111;-64
2022/11/10 09:10:38;;;;;;;22.92;3.78;;;;;;;13.46;100.00;101011.50;5095525;28;20124;-64
2022/11/10 09:13:04;;;;;;;23.58;3.70;;;;;;;13.49;100.00;101012.97;5106288;28;20106;-64
2022/11/10 09:15:31;;;;;;;30.58;4.20;;;;;;;13.55;100.00;101012.13;5101793;28;20039;-64
2022/11/10 09:18:01;;;;;;;34.33;4.25;;;;;;;13.58;100.00;101007.09;5098774;28;20032;-63
2022/11/10 09:20:29;;;;;;;27.60;3.88;;;;;;;13.59;100.00;101005.22;5107555;28;20067;-63
2022/11/10 09:22:54;;;;;;;27.25;3.95;;;;;;;13.63;100.00;101012.69;5096931;28;20034;-63
2022/11/10 09:25:20;;;;;;;27.23;3.80;;;;;;;13.68;100.00;101019.34;5069048;28;20460;-65
2022/11/10 09:27:45;;;;;;;27.25;3.83;;;;;;;13.65;100.00;101019.78;5103814;28;20206;-63
2022/11/10 09:30:11;;;;;;;33.47;5.00;;;;;;;13.70;100.00;101018.06;5097015;28;20056;-63
2022/11/10 09:32:37;;;;;;;30.27;4.05;;;;;;;13.77;100.00;101026.16;5108395;28;20062;-64
2022/11/10 09:35:02;;;;;;;28.48;3.55;;;;;;;13.80;100.00;101033.84;5097419;28;20354;-64
2022/11/10 09:37:28;;;;;;;31.33;3.63;;;;;;;13.76;100.00;101022.63;5102391;28;20035;-65
2022/11/10 09:39:53;;;;;;;22.75;3.92;;;;;;;13.67;100.00;101007.69;5086638;28;20028;-64
2022/11/10 09:42:38;;;;;;;29.08;3.83;;;;;;;13.87;100.00;101037.34;5095477;28;20071;-64
2022/11/10 09:45:17;;;;;;;32.28;4.53;;;;;;;13.88;100.00;101041.72;5083615;28;20031;-64
2022/11/10 09:47:55;;;;;;;23.98;3.58;;;;;;;13.86;100.00;101054.63;5100329;28;20036;-64
2022/11/10 09:50:46;;;;;;;24.35;3.25;;;;;;;13.87;100.00;101058.97;5108237;28;20019;-64
2022/11/10 09:53:20;;;;;;;34.45;4.68;;;;;;;13.82;100.00;101064.22;5048837;28;20518;-64
2022/11/10 09:55:50;;;;;;;28.70;4.15;;;;;;;13.81;100.00;101066.09;5048854;28;20045;-64
2022/11/10 09:58:17;;;;;;;24.80;3.45;;;;;;;13.76;100.00;101059.66;5028725;28;20060;-64
2022/11/10 10:01:09;;;;;;;27.73;4.20;;;;;;;13.80;100.00;101061.72;5048159;28;20114;-64
2022/11/10 10:03:45;;;;;;;29.90;3.75;;;;;;;13.85;100.00;101069.19;5009059;28;20058;-63
2022/11/10 10:06:15;;;;;;;31.35;3.92;;;;;;;13.97;100.00;101061.22;5009085;28;20104;-63
2022/11/10 10:09:02;;;;;;;25.05;3.53;;;;;;;13.99;100.00;101068.09;4993041;28;20567;-64
2022/11/10 10:11:38;;;;;;;34.33;4.38;;;;;;;14.03;100.00;101072.00;4994330;28;20046;-64
2022/11/10 10:14:07;;;;;;;22.58;3.70;;;;;;;14.04;100.00;101070.16;5009114;28;20099;-64
2022/11/10 10:16:37;;;;;;;23.08;3.13;;;;;;;14.06;100.00;101063.47;4992700;28;20481;-64
2022/11/10 10:19:14;;;;;;;24.88;3.92;;;;;;;14.10;100.00;101066.56;5009221;28;20046;-64
2022/11/10 10:22:08;;;;;;;24.67;3.58;;;;;;;14.07;100.00;101061.59;5009179;28;20081;-64
2022/11/10 10:24:37;;;;;;;25.35;4.40;;;;;;;14.14;100.00;101072.38;4998823;28;20059;-64
2022/11/10 10:27:25;;;;;;;28.50;4.05;;;;;;;14.09;100.00;101060.34;5008973;28;20258;-64
2022/11/10 10:29:52;;;;;;;22.02;2.78;;;;;;;13.94;100.00;101040.88;4964051;28;20037;-64
2022/11/10 10:32:18;;;;;;;23.52;3.42;;;;;;;14.08;100.00;101061.38;5008031;28;20041;-64
2022/11/10 10:34:45;;;;;;;25.13;3.70;;;;;;;14.09;100.00;101057.63;5041651;28;20072;-64
2022/11/10 10:37:44;;;;;;;21.77;3.38;;;;;;;14.09;100.00;101064.91;5043741;28;20116;-64
2022/11/10 10:40:16;;;;;;;25.67;3.83;;;;;;;14.08;100.00;101080.34;5085537;28;20047;-64
2022/11/10 10:42:41;;;;;;;31.60;4.30;;;;;;;14.10;100.00;101072.84;5079500;28;20051;-64
2022/11/10 10:45:15;;;;;;;24.83;3.50;;;;;;;14.14;100.00;101067.81;5065917;28;20547;-64
2022/11/10 10:47:41;;;;;;;22.98;3.13;;;;;;;14.17;100.00;101063.84;5069849;28;20286;-64
2022/11/10 10:50:32;;;;;;;23.90;3.20;;;;;;;14.16;100.00;101081.13;5076417;28;20044;-64
2022/11/10 10:53:16;;;;;;;26.88;3.50;;;;;;;14.17;100.00;101082.78;5064131;28;20031;-64
2022/11/10 10:55:46;;;;;;;22.75;3.08;;;;;;;14.17;100.00;101069.25;5080622;28;20056;-64
2022/11/10 10:58:19;;;;;;;28.20;3.28;;;;;;;14.23;100.00;101074.63;5087543;28;20438;-64
2022/11/10 11:00:46;;;;;;;29.08;3.45;;;;;;;14.24;100.00;101072.78;5067726;28;20143;-64
2022/11/10 11:03:23;;;;;;;23.70;3.25;;;;;;;14.34;100.00;101073.13;5090785;28;20044;-64
2022/11/10 11:06:03;;;;;;;21.33;3.63;;;;;;;14.36;100.00;101071.00;5105393;28;20042;-64
2022/11/10 11:08:29;;;;;;;24.08;3.17;;;;;;;14.29;100.00;101052.09;5098557;28;20032;-64
2022/11/10 11:10:54;;;;;;;21.40;3.35;;;;;;;14.36;100.00;101067.47;5111756;28;20406;-64
2022/11/10 11:13:23;;;;;;;30.98;4.05;;;;;;;14.39;100.00;101064.34;5098412;28;20389;-65
2022/11/10 11:16:08;;;;;;;17.70;2.90;;;;;;;14.41;100.00;101065.78;5108667;28;20069;-64
2022/11/10 11:18:38;;;;;;;19.92;3.50;;;;;;;14.39;100.00;101072.47;5104572;28;20594;-64
2022/11/10 11:21:36;;;;;;;21.45;3.20;;;;;;;14.41;100.00;101067.66;5101549;28;20040;-64
2022/11/10 11:24:39;;;;;;;22.67;3.08;;;;;;;14.41;100.00;101060.38;5093554;28;20042;-64
2022/11/10 11:27:26;;;;;;;23.98;3.03;;;;;;;14.44;100.00;101062.66;4995383;28;20065;-64